Time;durP1;ratioP1;P1;durP2;ratioP2;P2;SDS_P1;SDS_P2;PMS_P1;PMS_P2;Temp;Humidity;BMP_temperature;BMP_pressure;BME280_temperature;BME280_humidity;BME280_pressure;Samples;Min_cycle;Max_cycle;Signal;HPM_P1;HPM_P2
2022/01/27 00:05:19;;;;;;;46.87;24.57;;;;;;;0.30;100.00;96378.47;5057133;28;20187;-60
2022/01/27 00:10:54;;;;;;;50.57;25.63;;;;;;;0.26;100.00;96374.84;5015293;28;20196;-66
2022/01/27 00:13:25;;;;;;;52.13;25.63;;;;;;;0.28;100.00;96379.91;5048568;28;20200;-66
2022/01/27 00:15:59;;;;;;;52.07;25.10;;;;;;;0.28;100.00;96377.22;5072332;28;20183;-66
2022/01/27 00:18:25;;;;;;;52.77;26.07;;;;;;;0.29;100.00;96379.56;5072551;28;20261;-66
2022/01/27 00:20:50;;;;;;;48.47;24.47;;;;;;;0.31;100.00;96380.03;5072295;28;20189;-60
2022/01/27 00:23:16;;;;;;;52.27;26.40;;;;;;;0.37;100.00;96365.38;5072825;28;20187;-57
2022/01/27 00:25:41;;;;;;;56.70;27.43;;;;;;;0.36;100.00;96366.44;5072282;28;20190;-59
2022/01/27 00:28:07;;;;;;;50.77;24.83;;;;;;;0.32;100.00;96364.72;5072343;28;20207;-59
2022/01/27 00:30:34;;;;;;;50.47;24.20;;;;;;;0.32;100.00;96362.81;5071819;28;20274;-59
2022/01/27 00:32:59;;;;;;;50.70;24.77;;;;;;;0.28;100.00;96361.88;5072481;28;20189;-59
2022/01/27 00:35:24;;;;;;;50.33;24.93;;;;;;;0.27;100.00;96354.94;5072044;28;20189;-59
2022/01/27 00:37:50;;;;;;;48.30;24.67;;;;;;;0.26;100.00;96357.91;5055363;28;20190;-59
2022/01/27 00:40:15;;;;;;;55.53;26.50;;;;;;;0.28;100.00;96369.94;5055037;28;20241;-59
2022/01/27 00:42:42;;;;;;;48.80;25.97;;;;;;;0.30;100.00;96373.09;5071997;28;20232;-59
2022/01/27 00:45:08;;;;;;;51.23;25.63;;;;;;;0.29;100.00;96368.81;5071807;28;20192;-59
2022/01/27 00:47:34;;;;;;;51.63;25.27;;;;;;;0.31;100.00;96377.34;5071710;28;20240;-59
2022/01/27 00:50:00;;;;;;;49.13;25.43;;;;;;;0.31;100.00;96380.03;5071868;28;20184;-59
2022/01/27 00:52:48;;;;;;;50.70;25.73;;;;;;;0.28;100.00;96383.34;5054968;28;20233;-59
2022/01/27 00:55:14;;;;;;;49.97;24.87;;;;;;;0.22;100.00;96379.25;5055724;28;20261;-59
2022/01/27 01:00:12;;;;;;;54.70;26.57;;;;;;;0.20;100.00;96370.72;5056228;28;20188;-58
2022/01/27 01:02:49;;;;;;;49.43;25.40;;;;;;;0.17;100.00;96371.31;5071693;28;20190;-59
2022/01/27 01:07:55;;;;;;;52.70;26.97;;;;;;;0.08;100.00;96373.22;5056009;28;20204;-59
2022/01/27 01:15:28;;;;;;;43.70;23.33;;;;;;;0.00;100.00;96363.25;5056123;28;20261;-60
2022/01/27 01:31:46;;;;;;;51.57;25.80;;;;;;;-0.39;100.00;96352.53;5055908;28;20194;-60
2022/01/27 01:34:14;;;;;;;57.37;26.17;;;;;;;-0.46;100.00;96350.31;5071084;28;20186;-61
2022/01/27 01:36:52;;;;;;;50.57;25.37;;;;;;;-0.53;100.00;96357.22;5071045;28;20184;-59
2022/01/27 01:39:18;;;;;;;53.83;26.23;;;;;;;-0.64;100.00;96355.91;5070961;28;20239;-59
2022/01/27 01:41:43;;;;;;;48.37;25.57;;;;;;;-0.68;100.00;96355.72;5054255;28;20186;-59
2022/01/27 01:44:09;;;;;;;52.57;25.87;;;;;;;-0.69;100.00;96372.13;5070820;28;20194;-59
2022/01/27 01:46:34;;;;;;;53.33;26.50;;;;;;;-0.71;100.00;96377.00;5071403;28;20195;-59
2022/01/27 01:49:00;;;;;;;55.70;25.83;;;;;;;-0.71;100.00;96375.09;5054254;28;20240;-59
2022/01/27 01:51:29;;;;;;;52.50;25.93;;;;;;;-0.68;100.00;96371.00;5054248;28;20189;-59
2022/01/27 01:53:55;;;;;;;49.83;25.63;;;;;;;-0.69;100.00;96370.22;5054997;28;20190;-57
2022/01/27 01:56:22;;;;;;;52.57;26.23;;;;;;;-0.68;100.00;96379.06;5070792;28;20187;-67
2022/01/27 01:58:47;;;;;;;50.23;25.57;;;;;;;-0.71;100.00;96363.59;5070669;28;20566;-67
2022/01/27 02:01:13;;;;;;;52.83;26.73;;;;;;;-0.76;100.00;96358.38;5070665;28;20182;-68
2022/01/27 02:03:38;;;;;;;49.40;25.20;;;;;;;-0.81;100.00;96353.13;5070682;28;20256;-68
2022/01/27 02:06:05;;;;;;;54.77;25.80;;;;;;;-0.84;100.00;96351.06;5052832;28;20608;-68
2022/01/27 02:19:34;;;;;;;52.70;26.10;;;;;;;-0.91;100.00;96345.34;5055299;28;20253;-59
2022/01/27 02:22:04;;;;;;;53.03;26.53;;;;;;;-0.91;100.00;96353.41;5054134;28;20187;-59
2022/01/27 02:24:33;;;;;;;50.17;25.23;;;;;;;-0.93;100.00;96352.91;5070662;28;20194;-59
2022/01/27 02:27:00;;;;;;;53.87;26.07;;;;;;;-0.97;100.00;96344.69;5070142;28;20214;-59
2022/01/27 02:29:26;;;;;;;52.43;25.67;;;;;;;-1.02;100.00;96327.94;5070251;28;20201;-59
2022/01/27 02:31:53;;;;;;;52.60;25.90;;;;;;;-1.04;100.00;96324.78;5070772;28;20197;-59
2022/01/27 02:34:19;;;;;;;51.50;24.67;;;;;;;-1.04;100.00;96324.78;5069884;28;20197;-60
2022/01/27 02:36:44;;;;;;;52.30;25.83;;;;;;;-1.08;100.00;96326.47;5070373;28;20193;-59
2022/01/27 02:39:11;;;;;;;53.50;26.77;;;;;;;-1.10;100.00;96321.44;5069932;28;20193;-59
2022/01/27 02:41:50;;;;;;;51.50;25.83;;;;;;;-1.10;100.00;96315.25;5069935;28;20190;-59
2022/01/27 02:44:34;;;;;;;50.80;24.90;;;;;;;-1.11;100.00;96314.50;5053747;28;20274;-59
2022/01/27 02:47:00;;;;;;;49.97;25.37;;;;;;;-1.11;100.00;96324.41;5069942;28;20226;-59
2022/01/27 02:49:26;;;;;;;59.33;27.27;;;;;;;-1.14;100.00;96319.66;5069832;28;20196;-58
2022/01/27 02:51:52;;;;;;;50.53;25.67;;;;;;;-1.15;100.00;96318.88;5070584;28;20213;-59
2022/01/27 02:54:18;;;;;;;58.40;27.70;;;;;;;-1.19;100.00;96322.47;5070370;28;20288;-59
2022/01/27 02:56:47;;;;;;;52.27;26.67;;;;;;;-1.17;100.00;96325.66;5053567;28;20272;-59
2022/01/27 02:59:17;;;;;;;57.37;26.23;;;;;;;-1.17;100.00;96328.34;5069918;28;20281;-59
2022/01/27 03:01:47;;;;;;;54.83;26.87;;;;;;;-1.14;100.00;96325.00;5069630;28;20182;-59
2022/01/27 03:04:13;;;;;;;50.77;24.33;;;;;;;-1.13;100.00;96326.63;5069804;28;20186;-59
2022/01/27 03:06:38;;;;;;;51.23;25.20;;;;;;;-1.13;100.00;96323.94;5053009;28;20207;-58
2022/01/27 03:09:04;;;;;;;55.77;26.90;;;;;;;-1.16;100.00;96316.50;5070011;28;20193;-72
2022/01/27 03:11:56;;;;;;;50.27;25.80;;;;;;;-1.20;100.00;96310.97;5069521;28;20190;-57
2022/01/27 03:14:23;;;;;;;61.03;30.50;;;;;;;-1.24;100.00;96306.53;5053366;28;20193;-58
2022/01/27 03:16:53;;;;;;;54.67;26.83;;;;;;;-1.31;100.00;96308.84;5069346;28;20205;-56
2022/01/27 03:19:18;;;;;;;54.47;25.63;;;;;;;-1.35;100.00;96307.88;5069386;28;20193;-57
2022/01/27 03:21:44;;;;;;;53.60;26.17;;;;;;;-1.40;100.00;96302.63;5069248;28;20190;-56
2022/01/27 03:24:09;;;;;;;54.10;26.00;;;;;;;-1.44;100.00;96304.34;5053217;28;20195;-57
2022/01/27 03:26:35;;;;;;;55.27;25.70;;;;;;;-1.45;100.00;96292.06;5052650;28;20283;-58
2022/01/27 03:29:00;;;;;;;56.57;27.17;;;;;;;-1.47;100.00;96288.88;5069108;28;20182;-55
2022/01/27 03:31:27;;;;;;;56.60;25.27;;;;;;;-1.50;100.00;96289.47;5069473;28;20185;-53
2022/01/27 03:33:53;;;;;;;58.37;26.90;;;;;;;-1.55;100.00;96286.94;5069749;28;20178;-55
2022/01/27 03:36:18;;;;;;;48.77;25.00;;;;;;;-1.62;100.00;96286.56;5069415;28;20255;-57
2022/01/27 03:38:44;;;;;;;52.53;25.63;;;;;;;-1.67;100.00;96297.41;5052724;28;20181;-56
2022/01/27 03:41:10;;;;;;;52.40;25.37;;;;;;;-1.72;100.00;96298.31;5052429;28;20194;-55
2022/01/27 03:43:37;;;;;;;50.90;25.87;;;;;;;-1.73;100.00;96295.94;5069273;28;20209;-60
2022/01/27 03:46:04;;;;;;;50.70;24.30;;;;;;;-1.74;100.00;96289.00;5069265;28;20200;-60
2022/01/27 03:48:30;;;;;;;54.47;25.87;;;;;;;-1.74;100.00;96283.66;5069058;28;20256;-59
2022/01/27 03:50:55;;;;;;;54.67;25.43;;;;;;;-1.78;100.00;96280.00;5069021;28;20193;-59
2022/01/27 03:53:21;;;;;;;56.17;25.40;;;;;;;-1.83;100.00;96290.81;5069571;28;20213;-59
2022/01/27 03:55:46;;;;;;;50.03;24.87;;;;;;;-1.86;100.00;96292.19;5069218;28;20194;-59
2022/01/27 03:58:12;;;;;;;47.43;24.57;;;;;;;-1.90;100.00;96296.56;5068993;28;20232;-59
2022/01/27 04:00:38;;;;;;;46.37;23.40;;;;;;;-1.92;100.00;96298.78;5069436;28;20194;-59
2022/01/27 04:03:07;;;;;;;49.07;23.00;;;;;;;-1.94;100.00;96302.81;5052497;28;20269;-67
2022/01/27 04:05:40;;;;;;;50.53;24.73;;;;;;;-1.95;100.00;96304.72;5069139;28;20189;-56
2022/01/27 04:08:07;;;;;;;47.10;24.30;;;;;;;-1.93;100.00;96313.22;5069629;28;20201;-57
2022/01/27 04:10:34;;;;;;;51.50;24.57;;;;;;;-1.91;100.00;96304.91;5068737;28;20235;-56
2022/01/27 04:13:00;;;;;;;46.80;22.97;;;;;;;-1.90;100.00;96296.56;5068744;28;20193;-56
2022/01/27 04:15:25;;;;;;;45.17;23.30;;;;;;;-1.89;100.00;96292.03;5069250;28;20673;-56
2022/01/27 04:17:52;;;;;;;50.70;23.00;;;;;;;-1.87;100.00;96284.47;5069365;28;20190;-56
2022/01/27 04:20:17;;;;;;;50.23;23.70;;;;;;;-1.87;100.00;96276.44;5068786;28;20277;-56
2022/01/27 04:22:43;;;;;;;48.40;23.93;;;;;;;-1.84;100.00;96267.81;5069361;28;20238;-59
2022/01/27 04:25:08;;;;;;;48.47;24.30;;;;;;;-1.83;100.00;96264.84;5052483;28;20194;-67
2022/01/27 04:27:38;;;;;;;50.53;24.33;;;;;;;-1.79;100.00;96259.69;5051910;28;20212;-67
2022/01/27 04:30:07;;;;;;;52.23;25.03;;;;;;;-1.77;100.00;96268.19;5070822;28;20272;-67
2022/01/27 04:32:40;;;;;;;49.80;23.73;;;;;;;-1.72;100.00;96260.03;5072703;28;20178;-67
2022/01/27 04:35:07;;;;;;;50.83;23.37;;;;;;;-1.72;100.00;96260.03;5072698;28;20202;-67
2022/01/27 04:37:38;;;;;;;52.73;26.00;;;;;;;-1.72;100.00;96265.38;5072276;28;20182;-67
2022/01/27 04:40:11;;;;;;;49.73;24.63;;;;;;;-1.71;100.00;96267.00;5055882;28;20186;-58
2022/01/27 04:42:50;;;;;;;48.83;25.70;;;;;;;-1.70;100.00;96263.22;5056236;28;20177;-60
2022/01/27 04:45:18;;;;;;;50.57;24.83;;;;;;;-1.67;100.00;96241.19;5072293;28;20197;-61
2022/01/27 04:47:48;;;;;;;49.10;24.77;;;;;;;-1.67;100.00;96250.00;5055501;28;20279;-60
2022/01/27 04:50:13;;;;;;;50.77;24.47;;;;;;;-1.67;100.00;96247.31;5055395;28;20178;-60
2022/01/27 04:52:46;;;;;;;47.00;24.10;;;;;;;-1.69;100.00;96238.81;5055545;28;20187;-60
2022/01/27 04:55:13;;;;;;;52.23;25.10;;;;;;;-1.71;100.00;96241.00;5055057;28;20182;-60
2022/01/27 04:57:41;;;;;;;44.87;23.00;;;;;;;-1.74;100.00;96235.47;5055444;28;20220;-59
2022/01/27 05:00:09;;;;;;;41.47;22.93;;;;;;;-1.78;100.00;96229.16;5055822;28;20193;-60
2022/01/27 05:02:47;;;;;;;49.03;22.93;;;;;;;-1.80;100.00;96242.03;5071641;28;20186;-60
2022/01/27 05:05:13;;;;;;;51.13;24.90;;;;;;;-1.82;100.00;96233.53;5055372;28;20185;-60
2022/01/27 05:07:39;;;;;;;49.73;23.93;;;;;;;-1.85;100.00;96239.50;5054561;28;20206;-59
2022/01/27 05:10:12;;;;;;;49.30;23.10;;;;;;;-1.88;100.00;96240.09;5054792;28;20185;-59
2022/01/27 05:12:44;;;;;;;45.30;22.47;;;;;;;-1.90;100.00;96237.72;5071947;28;20181;-59
2022/01/27 05:15:10;;;;;;;46.33;23.17;;;;;;;-1.91;100.00;96230.00;5055131;28;20215;-70
2022/01/27 05:17:35;;;;;;;49.80;23.23;;;;;;;-1.93;100.00;96232.97;5071902;28;20181;-59
2022/01/27 05:20:01;;;;;;;46.47;22.60;;;;;;;-1.94;100.00;96226.03;5054573;28;20190;-57
2022/01/27 05:22:26;;;;;;;48.93;23.37;;;;;;;-1.96;100.00;96227.44;5054513;28;20186;-58
2022/01/27 05:24:52;;;;;;;48.07;24.27;;;;;;;-1.98;100.00;96218.91;5070810;28;20221;-58
2022/01/27 05:27:17;;;;;;;42.00;22.40;;;;;;;-1.98;100.00;96216.25;5071998;28;20226;-58
2022/01/27 05:29:42;;;;;;;47.50;22.87;;;;;;;-1.98;100.00;96218.91;5071253;28;20229;-55
2022/01/27 05:32:09;;;;;;;42.17;22.50;;;;;;;-1.99;100.00;96206.63;5054879;28;20202;-57
2022/01/27 05:34:35;;;;;;;46.70;23.00;;;;;;;-2.02;100.00;96215.28;5071227;28;20190;-59
2022/01/27 05:37:00;;;;;;;44.67;22.87;;;;;;;-2.04;100.00;96206.78;5054808;28;20230;-68
2022/01/27 05:39:25;;;;;;;44.33;21.83;;;;;;;-2.09;100.00;96201.53;5054258;28;20208;-68
2022/01/27 05:41:51;;;;;;;44.93;22.10;;;;;;;-2.13;100.00;96198.69;5054597;28;20189;-68
2022/01/27 05:44:16;;;;;;;36.37;20.43;;;;;;;-2.14;100.00;96210.47;5054314;28;20182;-70
2022/01/27 05:46:42;;;;;;;43.50;24.10;;;;;;;-2.17;100.00;96192.34;5054000;28;20212;-68
2022/01/27 05:49:07;;;;;;;43.40;23.83;;;;;;;-2.21;100.00;96201.28;5054187;28;20247;-69
2022/01/27 05:51:33;;;;;;;44.37;22.10;;;;;;;-2.21;100.00;96201.28;5070826;28;20194;-58
2022/01/27 05:53:59;;;;;;;39.77;21.63;;;;;;;-2.21;100.00;96209.31;5055168;28;20276;-65
2022/01/27 05:56:24;;;;;;;43.43;22.47;;;;;;;-2.22;100.00;96203.16;5054195;28;20185;-60
2022/01/27 05:58:49;;;;;;;47.80;24.33;;;;;;;-2.19;100.00;96199.09;5054627;28;20198;-60
2022/01/27 06:01:17;;;;;;;43.93;21.70;;;;;;;-2.19;100.00;96204.44;5070873;28;20594;-59
2022/01/27 06:03:43;;;;;;;51.37;25.17;;;;;;;-2.19;100.00;96201.78;5070418;28;20197;-61
2022/01/27 06:06:08;;;;;;;52.43;26.97;;;;;;;-2.22;100.00;96197.81;5053862;28;20288;-59
2022/01/27 06:08:34;;;;;;;42.63;21.87;;;;;;;-2.22;100.00;96197.03;5054869;28;20240;-60
2022/01/27 06:11:00;;;;;;;40.80;19.87;;;;;;;-2.22;100.00;96187.09;5070410;28;20545;-66
2022/01/27 06:13:25;;;;;;;39.23;21.80;;;;;;;-2.20;100.00;96200.19;5070767;28;20193;-59
2022/01/27 06:15:51;;;;;;;41.23;21.00;;;;;;;-2.17;100.00;96194.22;5070371;28;20269;-60
2022/01/27 06:18:16;;;;;;;40.67;21.60;;;;;;;-2.16;100.00;96201.16;5070474;28;20197;-59
2022/01/27 06:20:45;;;;;;;45.33;22.17;;;;;;;-2.17;100.00;96194.22;5053888;28;20181;-59
2022/01/27 06:23:12;;;;;;;39.77;21.80;;;;;;;-2.16;100.00;96185.09;5070353;28;20213;-59
2022/01/27 06:25:40;;;;;;;39.47;20.07;;;;;;;-2.14;100.00;96177.59;5069922;28;20265;-59
2022/01/27 06:28:05;;;;;;;40.80;21.20;;;;;;;-2.12;100.00;96180.75;5054524;28;20204;-60
2022/01/27 06:30:34;;;;;;;37.53;19.87;;;;;;;-2.11;100.00;96193.78;5053563;28;20202;-69
2022/01/27 06:33:02;;;;;;;39.37;20.10;;;;;;;-2.08;100.00;96197.78;5054172;28;20225;-60
2022/01/27 06:35:28;;;;;;;43.93;21.37;;;;;;;-2.09;100.00;96193.50;5070248;28;20239;-60
2022/01/27 06:37:53;;;;;;;39.97;21.13;;;;;;;-2.10;100.00;96191.94;5070648;28;20194;-61
2022/01/27 06:40:18;;;;;;;43.27;21.03;;;;;;;-2.09;100.00;96190.81;5053900;28;20194;-60
2022/01/27 06:42:44;;;;;;;45.67;23.03;;;;;;;-2.08;100.00;96192.44;5053509;28;20190;-60
2022/01/27 06:45:10;;;;;;;43.50;23.13;;;;;;;-2.08;100.00;96195.88;5053035;28;20209;-61
2022/01/27 06:47:35;;;;;;;39.10;21.70;;;;;;;-2.09;100.00;96196.97;5069879;28;20235;-60
2022/01/27 06:50:01;;;;;;;39.53;19.83;;;;;;;-2.08;100.00;96197.78;5053412;28;20189;-65
2022/01/27 06:52:28;;;;;;;38.50;19.30;;;;;;;-2.04;100.00;96196.06;5069655;28;20216;-65
2022/01/27 06:54:57;;;;;;;39.50;20.50;;;;;;;-2.01;100.00;96192.78;5069641;28;20205;-65
2022/01/27 06:57:23;;;;;;;40.07;21.23;;;;;;;-1.98;100.00;96178.78;5069550;28;20189;-67
2022/01/27 06:59:49;;;;;;;42.90;22.00;;;;;;;-1.92;100.00;96180.25;5069653;28;20255;-67
2022/01/27 07:02:15;;;;;;;36.23;20.27;;;;;;;-1.86;100.00;96184.41;5069594;28;20190;-70
2022/01/27 07:04:40;;;;;;;36.83;19.73;;;;;;;-1.79;100.00;96174.06;5069309;28;20192;-67
2022/01/27 07:07:06;;;;;;;36.63;20.03;;;;;;;-1.69;100.00;96168.44;5069352;28;20291;-61
2022/01/27 07:09:31;;;;;;;36.73;20.80;;;;;;;-1.58;100.00;96169.75;5069625;28;20213;-58
2022/01/27 07:11:57;;;;;;;35.27;19.97;;;;;;;-1.42;100.00;96173.63;5069242;28;20190;-58
2022/01/27 07:14:23;;;;;;;36.13;20.23;;;;;;;-1.21;100.00;96174.66;5069574;28;20264;-59
2022/01/27 07:16:48;;;;;;;38.60;19.03;;;;;;;-0.94;100.00;96172.53;5052806;28;20212;-60
2022/01/27 07:19:14;;;;;;;35.20;18.53;;;;;;;-0.71;100.00;96168.69;5052707;28;20186;-58
2022/01/27 07:21:39;;;;;;;38.23;18.50;;;;;;;-0.38;100.00;96172.53;5069330;28;20186;-60
2022/01/27 07:24:05;;;;;;;29.67;18.10;;;;;;;-0.05;100.00;96172.81;5069855;28;20217;-66
2022/01/27 07:26:30;;;;;;;32.13;18.40;;;;;;;0.05;100.00;96169.84;5069669;28;20248;-67
2022/01/27 07:28:56;;;;;;;33.53;17.77;;;;;;;0.08;100.00;96167.28;5052818;28;20241;-69
2022/01/27 07:31:22;;;;;;;28.23;17.87;;;;;;;0.18;100.00;96174.22;5069056;28;20184;-68
2022/01/27 07:33:48;;;;;;;32.03;17.73;;;;;;;0.46;100.00;96174.66;5069343;28;20187;-69
2022/01/27 07:36:17;;;;;;;31.40;17.67;;;;;;;0.82;100.00;96173.13;5052996;28;20192;-66
2022/01/27 07:38:44;;;;;;;27.73;16.83;;;;;;;1.16;100.00;96181.06;5069339;28;20185;-65
2022/01/27 07:41:12;;;;;;;31.13;18.23;;;;;;;1.52;100.00;96175.16;5069417;28;20188;-65
2022/01/27 07:43:37;;;;;;;28.90;16.90;;;;;;;2.05;100.00;96189.50;5069245;28;20189;-60
2022/01/27 07:46:03;;;;;;;27.70;16.70;;;;;;;2.51;100.00;96186.53;5068931;28;20236;-58
2022/01/27 07:48:29;;;;;;;31.10;17.90;;;;;;;3.26;100.00;96186.03;5068902;28;20217;-58
2022/01/27 07:50:54;;;;;;;29.40;16.50;;;;;;;4.10;100.00;96187.03;5068937;28;20239;-58
2022/01/27 07:53:21;;;;;;;28.13;17.00;;;;;;;4.41;100.00;96198.75;5052755;28;20235;-59
2022/01/27 07:55:47;;;;;;;33.70;17.67;;;;;;;4.75;100.00;96194.69;5052263;28;20184;-58
2022/01/27 07:58:12;;;;;;;30.90;17.67;;;;;;;5.07;100.00;96199.00;5052154;28;20278;-58
2022/01/27 08:00:39;;;;;;;26.07;16.80;;;;;;;5.48;100.00;96199.28;5068651;28;20241;-61
2022/01/27 08:03:04;;;;;;;25.67;16.13;;;;;;;5.89;100.00;96203.34;5052416;28;20200;-61
2022/01/27 08:05:29;;;;;;;23.93;17.10;;;;;;;6.31;100.00;96196.16;5071397;28;20197;-71
2022/01/27 08:07:55;;;;;;;24.93;17.57;;;;;;;6.94;100.00;96200.13;5072159;28;20219;-72
2022/01/27 08:10:20;;;;;;;25.03;17.30;;;;;;;7.86;100.00;96203.25;5072300;28;20205;-73
2022/01/27 08:12:46;;;;;;;26.70;17.30;;;;;;;8.32;100.00;96199.28;5055442;28;20182;-70
2022/01/27 08:15:12;;;;;;;23.97;16.40;;;;;;;8.71;100.00;96203.28;5055506;28;20198;-69
2022/01/27 08:17:38;;;;;;;22.33;15.80;;;;;;;9.69;97.96;96200.78;5072832;28;20219;-71
2022/01/27 08:20:04;;;;;;;21.83;15.83;;;;;;;9.82;88.40;96191.13;5055798;28;20192;-57
2022/01/27 08:22:31;;;;;;;22.73;16.07;;;;;;;10.08;87.25;96189.03;5072352;28;20197;-61
2022/01/27 08:24:56;;;;;;;20.03;15.80;;;;;;;9.84;84.84;96197.78;5072197;28;20190;-61
2022/01/27 08:27:26;;;;;;;19.20;15.33;;;;;;;9.44;84.85;96200.56;5055885;28;20209;-61
2022/01/27 08:29:57;;;;;;;20.93;16.07;;;;;;;8.97;87.71;96199.69;5055702;28;20214;-61
2022/01/27 08:32:32;;;;;;;23.67;16.83;;;;;;;8.67;90.29;96194.28;5056010;28;20217;-61
2022/01/27 08:34:57;;;;;;;23.47;16.93;;;;;;;8.00;91.74;96197.22;5072638;28;20238;-61
2022/01/27 08:37:22;;;;;;;21.30;15.37;;;;;;;7.73;96.12;96187.50;5055056;28;20190;-69
2022/01/27 08:39:48;;;;;;;19.00;14.73;;;;;;;7.63;98.35;96188.13;5055254;28;20217;-61
2022/01/27 08:42:14;;;;;;;19.90;14.97;;;;;;;7.60;99.15;96184.19;5071938;28;20189;-57
2022/01/27 08:44:41;;;;;;;20.57;15.60;;;;;;;7.89;99.20;96179.97;5055035;28;20207;-55
2022/01/27 08:47:07;;;;;;;19.73;15.17;;;;;;;8.17;94.82;96181.19;5055898;28;20217;-58
2022/01/27 08:49:33;;;;;;;20.17;14.77;;;;;;;8.24;96.53;96186.75;5071529;28;20206;-56
2022/01/27 08:51:59;;;;;;;19.50;14.13;;;;;;;8.73;91.31;96186.56;5072135;28;20243;-57
2022/01/27 08:54:25;;;;;;;17.23;13.30;;;;;;;8.86;92.48;96185.94;5071612;28;20189;-56
2022/01/27 08:56:51;;;;;;;17.77;12.87;;;;;;;9.33;89.27;96194.22;5071109;28;20196;-60
2022/01/27 08:59:17;;;;;;;16.70;12.67;;;;;;;9.74;86.55;96187.59;5071576;28;20190;-59
2022/01/27 09:01:43;;;;;;;17.00;12.27;;;;;;;10.07;83.38;96184.75;5055288;28;20182;-59
2022/01/27 09:04:08;;;;;;;13.63;10.37;;;;;;;10.67;78.19;96189.72;5071591;28;20280;-59
2022/01/27 09:06:34;;;;;;;13.63;10.53;;;;;;;10.79;71.41;96186.66;5071772;28;20224;-59
2022/01/27 09:09:00;;;;;;;11.63;8.77;;;;;;;10.63;71.29;96183.47;5071194;28;20281;-59
2022/01/27 09:11:28;;;;;;;13.13;9.90;;;;;;;10.43;72.90;96184.94;5055126;28;20273;-60
2022/01/27 09:13:55;;;;;;;11.73;9.20;;;;;;;10.83;69.86;96177.31;5071365;28;20259;-59
2022/01/27 09:16:21;;;;;;;11.97;8.87;;;;;;;11.30;68.35;96168.06;5071244;28;20278;-60
2022/01/27 09:18:46;;;;;;;13.63;8.77;;;;;;;11.90;63.18;96163.41;5071387;28;20178;-67
2022/01/27 09:21:22;;;;;;;10.23;8.57;;;;;;;12.26;61.07;96164.91;5070922;28;20182;-66
2022/01/27 09:23:49;;;;;;;13.87;8.40;;;;;;;11.91;60.01;96162.25;5071821;28;20248;-67
2022/01/27 09:29:13;;;;;;;8.70;7.00;;;;;;;11.64;59.20;96155.59;5022115;28;20264;-74
2022/01/27 09:31:38;;;;;;;8.17;6.63;;;;;;;11.61;59.41;96150.91;5070967;28;20182;-64
2022/01/27 09:34:04;;;;;;;13.37;6.83;;;;;;;11.73;58.03;96153.25;5054640;28;20196;-57
2022/01/27 09:36:29;;;;;;;9.83;6.27;;;;;;;11.75;59.17;96145.44;5070979;28;20242;-61
2022/01/27 09:38:55;;;;;;;8.50;6.53;;;;;;;11.35;58.98;96152.03;5071078;28;20674;-58
2022/01/27 09:41:21;;;;;;;10.57;6.90;;;;;;;11.67;58.86;96154.81;5070957;28;20186;-62
2022/01/27 09:43:51;;;;;;;8.67;5.57;;;;;;;11.82;57.41;96151.69;5055361;28;20174;-58
2022/01/27 09:46:19;;;;;;;10.73;5.77;;;;;;;11.94;57.76;96153.22;5071316;28;20186;-59
2022/01/27 09:48:47;;;;;;;9.20;6.07;;;;;;;12.19;56.50;96153.97;5070847;28;20259;-60
2022/01/27 09:53:49;;;;;;;11.23;5.40;;;;;;;12.45;52.18;96143.34;5055140;28;20189;-54
2022/01/27 09:56:15;;;;;;;18.93;6.33;;;;;;;13.25;52.37;96144.16;5070662;28;20193;-55
2022/01/27 09:58:40;;;;;;;18.13;5.40;;;;;;;13.29;49.88;96142.16;5054367;28;20196;-56
2022/01/27 10:01:06;;;;;;;13.97;5.37;;;;;;;13.42;48.28;96143.28;5053785;28;20208;-55
2022/01/27 10:03:31;;;;;;;16.47;4.90;;;;;;;13.12;49.24;96135.63;5070616;28;20182;-52
2022/01/27 10:06:12;;;;;;;8.87;4.10;;;;;;;13.37;47.10;96135.47;5071067;28;20194;-52
2022/01/27 10:08:41;;;;;;;12.87;3.87;;;;;;;13.39;45.88;96122.13;5054328;28;20259;-55
2022/01/27 10:11:19;;;;;;;10.67;4.17;;;;;;;13.36;47.00;96117.44;5070469;28;20186;-54
2022/01/27 10:13:47;;;;;;;9.57;4.07;;;;;;;13.55;46.65;96125.13;5071022;28;20185;-56
2022/01/27 10:16:40;;;;;;;16.10;4.00;;;;;;;14.06;44.12;96111.31;5054098;28;20619;-57
2022/01/27 10:19:08;;;;;;;8.40;3.90;;;;;;;14.15;44.01;96122.63;5070395;28;20553;-59
2022/01/27 10:21:35;;;;;;;8.47;3.37;;;;;;;14.19;44.96;96115.13;5070292;28;20182;-59
2022/01/27 10:24:18;;;;;;;7.37;3.03;;;;;;;14.08;42.37;96113.66;5070410;28;20327;-59
2022/01/27 10:26:51;;;;;;;5.10;2.90;;;;;;;14.09;42.60;96110.50;5053188;28;20197;-59
2022/01/27 10:29:29;;;;;;;5.57;3.13;;;;;;;13.37;42.75;96108.03;5070806;28;20209;-71
2022/01/27 10:32:04;;;;;;;9.40;2.90;;;;;;;13.64;42.35;96111.72;5054009;28;20181;-71
2022/01/27 10:34:30;;;;;;;4.67;3.00;;;;;;;13.41;43.58;96111.53;5053020;28;20197;-71
2022/01/27 10:36:55;;;;;;;10.33;3.07;;;;;;;13.61;42.99;96106.25;5052889;28;20666;-70
2022/01/27 10:39:21;;;;;;;8.83;2.90;;;;;;;13.33;43.33;96101.78;5036396;28;20216;-72
2022/01/27 10:42:07;;;;;;;5.63;3.10;;;;;;;13.30;42.51;96102.59;5035997;28;20181;-69
2022/01/27 10:44:43;;;;;;;6.93;2.93;;;;;;;13.23;42.32;96097.16;5036413;28;20194;-71
2022/01/27 10:47:15;;;;;;;5.73;2.70;;;;;;;13.14;43.52;96088.59;5052803;28;20213;-59
2022/01/27 10:49:47;;;;;;;6.27;2.97;;;;;;;12.74;44.12;96092.72;5036178;28;20292;-67
2022/01/27 10:52:18;;;;;;;7.77;3.23;;;;;;;13.06;44.78;96081.59;5036258;28;20194;-63
2022/01/27 10:54:55;;;;;;;6.67;2.97;;;;;;;12.64;44.91;96084.56;5035881;28;20201;-65
2022/01/27 10:57:24;;;;;;;3.93;2.80;;;;;;;12.43;45.01;96098.34;5035546;28;20195;-65
2022/01/27 10:59:49;;;;;;;5.43;2.50;;;;;;;12.06;44.88;96089.88;5052697;28;20204;-67
2022/01/27 11:02:14;;;;;;;7.53;2.60;;;;;;;12.26;45.54;96091.75;5035628;28;20189;-67
2022/01/27 11:04:42;;;;;;;10.83;2.93;;;;;;;12.11;46.14;96097.69;5035595;28;20198;-66
2022/01/27 11:07:10;;;;;;;15.27;3.57;;;;;;;11.85;46.84;96089.91;5053297;28;20256;-58
2022/01/27 11:09:39;;;;;;;5.90;2.90;;;;;;;11.98;47.15;96088.34;5069460;28;20186;-58
2022/01/27 11:12:12;;;;;;;7.30;2.70;;;;;;;11.63;47.10;96078.22;5069827;28;20658;-59
2022/01/27 11:14:39;;;;;;;6.57;2.70;;;;;;;11.11;48.52;96072.75;5069815;28;20280;-59
2022/01/27 11:17:06;;;;;;;8.70;3.20;;;;;;;10.73;49.26;96073.44;5053935;28;20178;-54
2022/01/27 11:22:06;;;;;;;4.70;2.87;;;;;;;10.12;50.72;96065.47;5053687;28;20186;-58
2022/01/27 11:25:05;;;;;;;8.50;2.90;;;;;;;9.92;50.62;96060.25;5069576;28;20177;-56
2022/01/27 11:27:26;;;;;;;4.00;2.40;;;;;;;9.55;51.00;96056.94;5053129;28;20205;-66
2022/01/27 11:30:41;;;;;;;8.67;2.60;;;;;;;9.55;52.96;96059.66;5052449;28;20550;-68
2022/01/27 11:33:09;;;;;;;4.20;2.53;;;;;;;9.42;52.04;96054.91;5031256;28;20204;-68
2022/01/27 11:35:35;;;;;;;6.77;2.20;;;;;;;9.37;52.76;96058.75;5069001;28;20629;-68
2022/01/27 11:38:04;;;;;;;8.00;2.87;;;;;;;9.31;54.09;96054.81;5052106;28;20190;-66
2022/01/27 11:40:40;;;;;;;6.30;2.93;;;;;;;9.23;54.14;96047.78;5052281;28;20188;-57
2022/01/27 11:43:11;;;;;;;9.83;3.20;;;;;;;9.19;53.17;96046.97;5068822;28;20184;-61
2022/01/27 11:45:48;;;;;;;6.57;3.13;;;;;;;9.17;54.02;96043.81;5069652;28;20178;-55
2022/01/27 11:48:23;;;;;;;5.33;2.67;;;;;;;9.06;55.85;96040.22;5052599;28;20202;-55
2022/01/27 11:51:12;;;;;;;8.37;3.20;;;;;;;8.99;53.64;96032.00;5052815;28;20265;-54
2022/01/27 11:53:48;;;;;;;3.83;2.77;;;;;;;8.94;53.77;96032.34;5052365;28;20218;-55
2022/01/27 11:56:23;;;;;;;5.47;3.20;;;;;;;8.89;54.50;96031.91;5069580;28;20201;-58
2022/01/27 11:58:53;;;;;;;9.97;3.27;;;;;;;8.86;53.67;96027.97;5052826;28;20214;-59
2022/01/27 12:01:23;;;;;;;7.73;3.33;;;;;;;8.77;53.50;96019.34;5052803;28;20569;-59
2022/01/27 12:04:04;;;;;;;8.53;3.43;;;;;;;8.84;53.12;96019.41;5069315;28;20194;-58
2022/01/27 12:06:37;;;;;;;6.07;2.90;;;;;;;8.83;53.82;96023.31;5052168;28;20216;-59
2022/01/27 12:09:17;;;;;;;6.13;2.93;;;;;;;8.76;54.45;96020.53;5052723;28;20198;-58
2022/01/27 12:11:51;;;;;;;4.80;2.70;;;;;;;8.65;54.89;96027.81;5052402;28;20216;-58